Time;durP1;ratioP1;P1;durP2;ratioP2;P2;SDS_P1;SDS_P2;PMS_P1;PMS_P2;Temp;Humidity;BMP_temperature;BMP_pressure;BME280_temperature;BME280_humidity;BME280_pressure;Samples;Min_cycle;Max_cycle;Signal;HPM_P1;HPM_P2
2021/12/31 00:03:55;;;;;;;28.15;9.15;;;;;;;9.50;100.00;96604.56;30522244;19;20404;-74
2021/12/31 00:13:56;;;;;;;29.75;9.68;;;;;;;9.53;100.00;96604.81;30507847;19;20010;-73
2021/12/31 00:23:57;;;;;;;27.00;9.13;;;;;;;9.50;100.00;96600.09;30513781;19;20007;-74
2021/12/31 00:33:57;;;;;;;22.77;8.32;;;;;;;9.48;100.00;96583.72;30512293;19;20002;-74
2021/12/31 00:43:57;;;;;;;20.08;8.70;;;;;;;9.44;100.00;96593.25;30475213;19;20403;-73
2021/12/31 00:53:58;;;;;;;21.33;8.30;;;;;;;9.38;100.00;96595.09;30471554;19;20095;-73
2021/12/31 01:03:58;;;;;;;21.83;8.02;;;;;;;9.40;100.00;96587.69;30499944;19;20209;-74
2021/12/31 01:14:03;;;;;;;24.88;7.82;;;;;;;9.34;100.00;96586.13;30520676;19;20041;-74
2021/12/31 01:24:03;;;;;;;17.08;7.35;;;;;;;9.35;100.00;96573.69;30497611;19;20007;-73
2021/12/31 01:34:04;;;;;;;21.52;7.70;;;;;;;9.32;100.00;96577.69;30524781;19;20011;-73
2021/12/31 01:44:06;;;;;;;19.35;8.10;;;;;;;9.30;100.00;96587.72;30512358;19;20019;-74
2021/12/31 01:54:06;;;;;;;13.95;7.53;;;;;;;9.32;100.00;96587.47;30484021;19;20011;-74
2021/12/31 02:04:08;;;;;;;19.13;7.70;;;;;;;9.30;100.00;96600.94;30468264;19;20003;-73
2021/12/31 02:14:09;;;;;;;21.88;8.63;;;;;;;9.22;100.00;96607.56;30491933;19;20037;-74
2021/12/31 02:24:11;;;;;;;21.88;8.00;;;;;;;9.24;100.00;96613.38;30478715;19;20006;-74
2021/12/31 02:34:12;;;;;;;22.13;7.88;;;;;;;9.22;100.00;96602.28;30491764;19;20035;-73
2021/12/31 02:44:12;;;;;;;22.13;8.70;;;;;;;9.16;100.00;96597.28;30483340;19;20022;-74
2021/12/31 02:54:14;;;;;;;25.08;8.93;;;;;;;9.12;100.00;96597.03;30506281;19;20045;-73
2021/12/31 03:04:15;;;;;;;28.75;10.02;;;;;;;9.13;100.00;96589.88;30481579;19;20286;-73
2021/12/31 03:14:17;;;;;;;17.58;8.68;;;;;;;9.17;100.00;96569.78;30463710;19;20470;-73
2021/12/31 03:24:17;;;;;;;23.35;8.65;;;;;;;9.15;100.00;96561.31;30476014;19;20013;-73
2021/12/31 03:34:18;;;;;;;20.73;9.02;;;;;;;9.12;100.00;96567.94;30465963;19;20466;-73
2021/12/31 03:44:18;;;;;;;16.27;8.70;;;;;;;9.09;100.00;96559.75;30470094;19;20517;-74
2021/12/31 03:54:18;;;;;;;17.80;8.20;;;;;;;9.13;100.00;96551.00;30461983;19;20255;-73
2021/12/31 04:04:19;;;;;;;21.45;8.23;;;;;;;9.08;100.00;96537.06;30473386;19;20445;-73
2021/12/31 04:14:19;;;;;;;23.92;9.48;;;;;;;9.00;100.00;96539.16;30467521;19;20010;-73
2021/12/31 04:34:29;;;;;;;19.10;8.52;;;;;;;8.94;100.00;96544.75;30448702;19;20045;-73
2021/12/31 04:44:30;;;;;;;18.45;8.52;;;;;;;8.94;100.00;96547.38;30466804;19;20002;-73
2021/12/31 04:54:30;;;;;;;21.90;9.15;;;;;;;8.93;100.00;96556.34;30513218;19;20362;-73
2021/12/31 05:04:30;;;;;;;18.15;8.00;;;;;;;8.95;100.00;96552.41;30460533;19;20084;-73
2021/12/31 05:14:31;;;;;;;19.52;6.90;;;;;;;8.87;100.00;96538.94;30483941;19;20404;-74
2021/12/31 05:24:32;;;;;;;17.80;7.22;;;;;;;8.80;100.00;96518.09;30453604;19;20454;-74
2021/12/31 05:34:32;;;;;;;14.68;6.32;;;;;;;8.76;100.00;96522.31;30539826;19;20007;-74
2021/12/31 05:44:32;;;;;;;15.60;6.28;;;;;;;8.61;100.00;96520.50;30512634;19;20027;-74
2021/12/31 05:54:33;;;;;;;10.95;6.47;;;;;;;8.50;100.00;96519.72;30527157;19;20003;-74
2021/12/31 06:04:33;;;;;;;20.10;6.13;;;;;;;8.53;100.00;96524.47;30493085;19;20043;-74
2021/12/31 06:14:34;;;;;;;11.27;6.28;;;;;;;8.41;100.00;96537.16;30543103;19;20470;-75
2021/12/31 06:24:34;;;;;;;12.90;6.00;;;;;;;8.34;100.00;96532.09;30494889;19;20010;-74
2021/12/31 06:34:35;;;;;;;13.38;7.30;;;;;;;8.35;100.00;96544.25;30531388;19;20402;-74
2021/12/31 06:44:36;;;;;;;17.63;8.13;;;;;;;8.33;100.00;96537.66;30526202;19;20021;-73
2021/12/31 06:54:37;;;;;;;23.33;8.48;;;;;;;8.27;100.00;96523.66;30485403;19;20015;-73
2021/12/31 07:04:37;;;;;;;19.13;8.43;;;;;;;8.24;100.00;96519.69;30479288;19;20006;-74
2021/12/31 07:14:40;;;;;;;18.10;9.07;;;;;;;8.24;100.00;96522.34;30508697;19;21623;-77
2021/12/31 07:24:40;;;;;;;16.92;7.90;;;;;;;8.30;100.00;96530.28;30508599;19;20478;-76
2021/12/31 07:34:41;;;;;;;24.58;8.45;;;;;;;8.27;100.00;96520.22;30491288;19;20526;-77
2021/12/31 07:44:41;;;;;;;18.17;8.38;;;;;;;8.16;100.00;96533.41;30462484;19;20012;-77
2021/12/31 07:54:41;;;;;;;17.77;8.45;;;;;;;8.02;100.00;96530.50;30471800;19;20408;-77
2021/12/31 08:04:42;;;;;;;15.90;7.90;;;;;;;7.88;100.00;96552.38;30505877;19;20006;-77
2021/12/31 08:14:42;;;;;;;17.10;7.50;;;;;;;8.05;100.00;96550.31;30540324;19;20014;-77
2021/12/31 08:24:42;;;;;;;18.27;7.53;;;;;;;8.33;100.00;96542.91;30476765;19;20566;-77
2021/12/31 08:34:43;;;;;;;11.25;6.15;;;;;;;8.62;100.00;96551.94;30490779;19;21423;-76
2021/12/31 08:44:43;;;;;;;12.82;5.32;;;;;;;9.02;100.00;96534.41;30452958;19;20396;-77
2021/12/31 08:54:44;;;;;;;9.02;4.00;;;;;;;8.98;100.00;96548.44;30538770;19;20780;-78
2021/12/31 09:04:44;;;;;;;10.23;4.72;;;;;;;8.80;100.00;96553.22;30512509;19;20010;-78
2021/12/31 09:14:44;;;;;;;11.75;4.85;;;;;;;8.78;100.00;96544.75;30492231;19;20013;-77
2021/12/31 09:24:48;;;;;;;12.43;4.40;;;;;;;8.85;100.00;96563.00;30447714;19;20002;-76
2021/12/31 09:34:48;;;;;;;7.93;4.57;;;;;;;9.12;100.00;96593.59;30491929;19;20003;-77
2021/12/31 09:44:48;;;;;;;10.15;3.63;;;;;;;9.05;100.00;96581.44;30448539;19;20014;-74
2021/12/31 09:54:49;;;;;;;8.98;3.40;;;;;;;8.99;100.00;96594.91;30483700;19;20460;-77
2021/12/31 10:04:59;;;;;;;11.07;3.33;;;;;;;9.02;100.00;96600.47;30500222;19;20035;-77
2021/12/31 10:15:00;;;;;;;7.18;2.35;;;;;;;9.17;100.00;96596.22;30453443;19;20074;-77
2021/12/31 10:25:00;;;;;;;6.18;2.45;;;;;;;9.08;100.00;96587.25;30443250;19;20030;-74
2021/12/31 10:35:12;;;;;;;7.22;2.20;;;;;;;9.00;100.00;96570.88;30410961;19;20587;-74
2021/12/31 10:45:13;;;;;;;10.60;2.55;;;;;;;9.61;100.00;96563.81;30351970;19;137468;-74
2021/12/31 11:05:21;;;;;;;7.20;2.08;;;;;;;9.90;100.00;96528.72;30445721;19;20039;-74
2021/12/31 11:15:22;;;;;;;4.20;1.55;;;;;;;9.73;100.00;96545.75;30499064;19;20007;-74
2021/12/31 11:25:28;;;;;;;9.27;3.10;;;;;;;9.62;100.00;96512.47;30493165;19;20007;-74
2021/12/31 11:35:40;;;;;;;8.95;2.40;;;;;;;9.67;100.00;96495.81;30474267;19;20007;-75
2021/12/31 11:45:41;;;;;;;6.97;2.67;;;;;;;9.65;100.00;96459.84;30488555;19;20006;-74
2021/12/31 11:55:44;;;;;;;6.55;2.53;;;;;;;9.62;100.00;96438.41;30473299;19;20022;-74
2021/12/31 12:05:44;;;;;;;7.65;2.83;;;;;;;9.88;100.00;96454.13;30494301;19;20029;-74
2021/12/31 12:15:44;;;;;;;5.50;2.10;;;;;;;10.35;100.00;96456.13;30513509;19;20006;-74
2021/12/31 12:25:45;;;;;;;5.38;2.20;;;;;;;10.82;100.00;96469.72;30471727;19;20665;-74
2021/12/31 12:35:48;;;;;;;7.40;2.42;;;;;;;11.40;100.00;96443.03;30492282;19;20010;-75
2021/12/31 12:45:52;;;;;;;7.43;2.30;;;;;;;11.63;100.00;96429.97;30487625;19;20645;-76
2021/12/31 12:56:07;;;;;;;6.55;2.25;;;;;;;11.84;100.00;96471.03;30463382;19;20018;-76
2021/12/31 13:06:07;;;;;;;6.05;2.50;;;;;;;11.76;100.00;96434.53;30478876;19;20014;-76
2021/12/31 13:16:08;;;;;;;6.30;2.95;;;;;;;11.45;100.00;96450.13;30472047;19;20010;-75
2021/12/31 13:26:16;;;;;;;5.80;2.55;;;;;;;11.34;100.00;96428.25;30462012;19;20013;-75
2021/12/31 13:36:19;;;;;;;8.60;2.60;;;;;;;11.66;100.00;96448.75;30468603;19;20082;-76
2021/12/31 13:46:33;;;;;;;6.43;2.22;;;;;;;13.06;100.00;96443.44;30502064;19;20255;-75
2021/12/31 13:56:36;;;;;;;8.07;2.20;;;;;;;14.45;100.00;96437.66;30497296;19;20035;-76
